createdAt,value
2022-11-30T00:01:38.810Z,81.50
2022-11-30T00:04:06.479Z,81.50
2022-11-30T00:06:34.167Z,81.50
2022-11-30T00:09:01.508Z,81.50
2022-11-30T00:11:30.389Z,81.40
2022-11-30T00:13:59.692Z,81.40
2022-11-30T00:16:27.772Z,81.50
2022-11-30T00:18:55.508Z,81.60
2022-11-30T00:21:25.073Z,81.60
2022-11-30T00:23:52.128Z,81.50
2022-11-30T00:26:22.318Z,81.50
2022-11-30T00:28:50.891Z,81.40
2022-11-30T00:31:19.114Z,81.50
2022-11-30T00:33:46.676Z,81.50
2022-11-30T00:36:16.045Z,81.40
2022-11-30T00:38:43.250Z,81.50
2022-11-30T00:41:11.235Z,81.60
2022-11-30T00:43:38.830Z,81.60
2022-11-30T00:46:06.630Z,81.60
2022-11-30T00:48:34.701Z,81.70
2022-11-30T00:51:01.840Z,81.70
2022-11-30T00:53:29.129Z,81.70
2022-11-30T00:55:56.490Z,81.60
2022-11-30T00:58:23.873Z,81.70
2022-11-30T01:00:50.928Z,81.60
2022-11-30T01:03:18.646Z,81.60
2022-11-30T01:05:46.225Z,81.50
2022-11-30T01:08:13.929Z,81.60
2022-11-30T01:10:43.291Z,81.50
2022-11-30T01:13:13.076Z,81.50
2022-11-30T01:15:43.821Z,81.50
2022-11-30T01:18:11.868Z,81.40
2022-11-30T01:20:43.558Z,81.50
2022-11-30T01:23:11.901Z,81.30
2022-11-30T01:25:39.479Z,81.40
2022-11-30T01:28:06.970Z,81.30
2022-11-30T01:30:35.957Z,81.40
2022-11-30T01:33:07.246Z,81.30
2022-11-30T01:35:34.408Z,81.20
2022-11-30T01:38:01.373Z,81.20
2022-11-30T01:40:28.626Z,81.30
2022-11-30T01:42:55.874Z,81.20
2022-11-30T01:45:23.326Z,81.20
2022-11-30T01:47:57.246Z,81.30
2022-11-30T01:50:30.784Z,81.30
2022-11-30T01:52:58.344Z,81.20
2022-11-30T01:55:38.054Z,81.30
2022-11-30T01:58:15.762Z,81.30
2022-11-30T02:00:47.286Z,81.30
2022-11-30T02:03:36.645Z,81.30
2022-11-30T02:06:04.154Z,81.30
2022-11-30T02:08:32.038Z,81.30
2022-11-30T02:11:04.538Z,81.30
2022-11-30T02:13:51.701Z,81.40
2022-11-30T02:16:27.995Z,81.30
2022-11-30T02:19:14.069Z,81.40
2022-11-30T02:21:49.118Z,81.30
2022-11-30T02:24:35.387Z,81.20
2022-11-30T02:27:31.509Z,81.20
2022-11-30T02:30:13.540Z,81.30
2022-11-30T02:32:59.120Z,81.30
2022-11-30T02:35:34.391Z,81.20
2022-11-30T02:38:05.986Z,81.10
2022-11-30T02:40:36.270Z,81.20
2022-11-30T02:43:06.892Z,81.20
2022-11-30T02:45:58.114Z,81.20
2022-11-30T02:48:51.515Z,81.20
2022-11-30T02:51:25.626Z,81.20
2022-11-30T02:53:54.815Z,81.20
2022-11-30T02:56:22.870Z,81.20
2022-11-30T02:58:50.301Z,81.20
2022-11-30T03:01:17.569Z,81.20
2022-11-30T03:03:45.159Z,81.10
2022-11-30T03:06:14.095Z,81.00
2022-11-30T03:08:42.587Z,81.10
2022-11-30T03:11:10.057Z,81.10
2022-11-30T03:13:37.639Z,81.10
2022-11-30T03:16:14.182Z,81.10
2022-11-30T03:18:49.266Z,81.10
2022-11-30T03:21:16.944Z,80.90
2022-11-30T03:23:44.871Z,80.70
2022-11-30T03:26:12.424Z,80.80
2022-11-30T03:28:41.073Z,81.00
2022-11-30T03:31:14.774Z,81.20
2022-11-30T03:33:44.805Z,81.10
2022-11-30T03:36:15.534Z,81.10
2022-11-30T03:38:42.946Z,81.00
2022-11-30T03:41:19.050Z,81.00
2022-11-30T03:43:47.248Z,81.10
2022-11-30T03:46:15.408Z,81.10
2022-11-30T03:48:45.096Z,81.00
2022-11-30T03:51:13.543Z,81.00
2022-11-30T03:53:41.843Z,81.00
2022-11-30T03:56:11.182Z,80.90
2022-11-30T03:58:39.766Z,81.00
2022-11-30T04:01:12.218Z,80.90
2022-11-30T04:03:40.847Z,80.90
2022-11-30T04:06:12.299Z,80.90
2022-11-30T04:08:42.791Z,80.90
2022-11-30T04:11:11.517Z,80.80
2022-11-30T04:13:41.804Z,80.80
2022-11-30T04:16:09.570Z,80.70
2022-11-30T04:18:38.512Z,80.80
2022-11-30T04:21:07.638Z,80.80
2022-11-30T04:23:38.891Z,81.00
2022-11-30T04:26:11.164Z,81.10
2022-11-30T04:28:38.562Z,81.10
2022-11-30T04:31:06.222Z,81.00
2022-11-30T04:33:33.896Z,81.00
2022-11-30T04:36:03.526Z,80.80
2022-11-30T04:38:31.813Z,80.80
2022-11-30T04:40:59.170Z,80.90
2022-11-30T04:43:26.284Z,80.90
2022-11-30T04:45:53.550Z,80.90
2022-11-30T04:48:24.082Z,80.90
2022-11-30T04:50:52.712Z,81.20
2022-11-30T04:53:20.544Z,81.30
2022-11-30T04:55:47.689Z,81.50
2022-11-30T04:58:15.256Z,81.50
2022-11-30T05:00:42.812Z,81.50
2022-11-30T05:03:14.072Z,81.50
2022-11-30T05:05:41.645Z,81.40
2022-11-30T05:08:13.061Z,81.40
2022-11-30T05:10:45.018Z,81.40
2022-11-30T05:13:16.393Z,81.50
2022-11-30T05:15:47.693Z,81.70
2022-11-30T05:18:16.228Z,81.70
2022-11-30T05:20:51.304Z,81.70
2022-11-30T05:23:19.769Z,81.80
2022-11-30T05:26:00.476Z,81.90
2022-11-30T05:28:28.190Z,81.90
2022-11-30T05:30:55.632Z,81.90
2022-11-30T05:33:22.864Z,82.00
2022-11-30T05:35:50.318Z,82.00
2022-11-30T05:38:23.021Z,82.10
2022-11-30T05:40:51.312Z,82.10
2022-11-30T05:43:19.016Z,82.30
2022-11-30T05:45:48.773Z,82.30
2022-11-30T05:48:16.309Z,82.20
2022-11-30T05:50:44.897Z,82.30
2022-11-30T05:53:12.247Z,82.40
2022-11-30T05:55:39.530Z,82.30
2022-11-30T05:58:06.757Z,82.20
2022-11-30T06:00:36.539Z,82.10
2022-11-30T06:03:04.607Z,82.30
2022-11-30T06:05:35.508Z,82.30
2022-11-30T06:08:02.542Z,82.20
2022-11-30T06:10:29.634Z,82.40
2022-11-30T06:12:56.644Z,82.40
2022-11-30T06:15:23.496Z,82.40
2022-11-30T06:17:50.537Z,82.50
2022-11-30T06:20:17.540Z,82.60
2022-11-30T06:22:47.680Z,82.60
2022-11-30T06:25:15.202Z,82.50
2022-11-30T06:27:43.760Z,82.50
2022-11-30T06:30:11.487Z,82.40
2022-11-30T06:32:38.466Z,82.40
2022-11-30T06:35:06.050Z,82.30
2022-11-30T06:37:36.071Z,82.20
2022-11-30T06:40:07.786Z,82.20
2022-11-30T06:42:36.426Z,82.10
2022-11-30T06:45:04.208Z,82.10
2022-11-30T07:14:03.249Z,83.10
2022-11-30T07:16:32.813Z,83.00
2022-11-30T07:19:03.067Z,82.90
2022-11-30T07:21:30.093Z,83.00
2022-11-30T07:24:16.002Z,82.90
2022-11-30T07:26:43.227Z,83.00
2022-11-30T07:29:10.262Z,82.90
2022-11-30T07:31:37.555Z,82.90
2022-11-30T07:34:07.915Z,82.90
2022-11-30T07:36:35.948Z,82.80
2022-11-30T07:39:04.290Z,82.80
2022-11-30T07:41:31.347Z,82.80
2022-11-30T07:44:08.840Z,82.80
2022-11-30T07:46:36.858Z,82.90
2022-11-30T07:49:04.652Z,82.80
2022-11-30T07:51:32.155Z,82.80
2022-11-30T07:53:59.587Z,83.00
2022-11-30T07:56:27.940Z,82.90
2022-11-30T07:58:57.881Z,83.10
2022-11-30T08:01:27.895Z,83.10
2022-11-30T08:03:55.306Z,83.00
2022-11-30T08:06:31.404Z,83.00
2022-11-30T08:09:02.287Z,83.00
2022-11-30T08:11:33.338Z,83.00
2022-11-30T08:14:01.377Z,83.10
2022-11-30T08:16:30.518Z,83.00
2022-11-30T08:18:58.684Z,82.90
2022-11-30T08:21:25.808Z,82.90
2022-11-30T08:23:56.937Z,82.90
2022-11-30T08:26:25.744Z,82.90
2022-11-30T08:28:54.173Z,83.00
2022-11-30T08:31:34.618Z,83.10
2022-11-30T08:34:05.594Z,83.10
2022-11-30T08:36:33.670Z,83.10
2022-11-30T08:39:03.417Z,83.20
2022-11-30T08:41:31.745Z,83.10
2022-11-30T08:43:58.824Z,83.10
2022-11-30T08:49:21.648Z,82.80
2022-11-30T08:52:16.396Z,82.70
2022-11-30T08:54:39.532Z,82.60
2022-11-30T08:57:06.649Z,82.60
2022-11-30T08:59:33.907Z,82.60
2022-11-30T09:02:01.124Z,82.50
2022-11-30T09:04:28.148Z,82.60
2022-11-30T09:06:59.176Z,82.70
2022-11-30T09:09:26.354Z,82.70
2022-11-30T09:11:53.570Z,82.70
2022-11-30T09:14:20.666Z,82.80
2022-11-30T09:16:47.905Z,82.70
2022-11-30T09:19:14.925Z,82.70
2022-11-30T09:21:44.303Z,82.80
2022-11-30T09:24:14.838Z,82.80
2022-11-30T09:26:41.995Z,82.80
2022-11-30T09:29:09.055Z,82.70
2022-11-30T09:31:36.431Z,82.60
2022-11-30T09:34:03.716Z,82.80
2022-11-30T09:36:31.062Z,82.70
2022-11-30T09:38:58.467Z,82.80
2022-11-30T09:41:34.803Z,82.70
2022-11-30T09:44:07.608Z,82.60
2022-11-30T09:46:49.253Z,82.30
2022-11-30T09:49:23.143Z,82.20
2022-11-30T09:51:54.975Z,82.40
2022-11-30T09:54:43.967Z,82.40
2022-11-30T09:57:29.183Z,82.40
2022-11-30T10:00:02.203Z,82.40
2022-11-30T10:02:40.155Z,82.30
2022-11-30T10:05:29.486Z,82.10
2022-11-30T10:08:26.230Z,82.20
2022-11-30T10:10:59.032Z,81.60
2022-11-30T10:13:36.388Z,81.40
2022-11-30T10:16:21.084Z,81.30
2022-11-30T10:19:17.488Z,81.60
2022-11-30T10:21:56.755Z,81.70
2022-11-30T10:25:05.931Z,81.50
2022-11-30T10:27:52.574Z,81.20
2022-11-30T10:30:36.442Z,81.50
2022-11-30T10:33:27.213Z,81.40
2022-11-30T10:36:04.865Z,81.50
2022-11-30T10:38:40.990Z,81.20
2022-11-30T10:41:25.648Z,80.80
2022-11-30T10:44:11.559Z,80.80
2022-11-30T10:46:51.145Z,80.70
2022-11-30T10:49:20.791Z,80.90
2022-11-30T10:51:55.323Z,80.80
2022-11-30T10:54:23.692Z,80.80
2022-11-30T10:56:50.659Z,80.80
2022-11-30T10:59:39.593Z,80.90
2022-11-30T11:02:40.701Z,80.90
2022-11-30T11:05:26.389Z,80.30
2022-11-30T11:08:17.400Z,80.70
2022-11-30T11:10:52.919Z,80.70
2022-11-30T11:13:35.041Z,80.70
2022-11-30T11:16:03.047Z,80.30
2022-11-30T11:18:34.944Z,80.40
2022-11-30T11:21:09.799Z,80.40
2022-11-30T11:23:41.924Z,80.20
2022-11-30T11:26:18.892Z,80.50
2022-11-30T11:28:50.086Z,80.30
2022-11-30T11:31:44.337Z,80.20
2022-11-30T11:34:26.471Z,80.20
2022-11-30T11:37:29.043Z,79.10
2022-11-30T11:40:02.256Z,79.10
2022-11-30T11:42:43.146Z,78.80
2022-11-30T11:45:28.867Z,79.00
2022-11-30T11:48:28.818Z,79.20
2022-11-30T11:51:08.432Z,78.80
2022-11-30T11:53:53.074Z,78.70
2022-11-30T11:56:34.024Z,78.90
2022-11-30T11:59:10.612Z,78.90
2022-11-30T12:02:16.018Z,79.10
2022-11-30T12:04:50.571Z,78.50
2022-11-30T12:11:48.642Z,78.60
2022-11-30T12:14:17.928Z,77.90
2022-11-30T12:17:10.093Z,78.40
2022-11-30T12:20:08.391Z,78.40
2022-11-30T12:22:50.678Z,78.60
2022-11-30T12:25:37.304Z,78.60
2022-11-30T12:28:29.550Z,78.70
2022-11-30T12:31:11.827Z,78.50
2022-11-30T12:33:49.407Z,78.90
2022-11-30T12:36:34.390Z,79.00
2022-11-30T12:39:10.229Z,79.00
2022-11-30T12:41:50.884Z,79.10
2022-11-30T12:44:43.669Z,78.90
2022-11-30T12:47:18.451Z,78.80
2022-11-30T12:49:59.432Z,78.60
2022-11-30T12:52:38.293Z,78.90
2022-11-30T12:55:36.394Z,79.20
2022-11-30T12:58:16.633Z,78.90
2022-11-30T13:01:07.653Z,78.60
2022-11-30T13:04:00.245Z,78.40
2022-11-30T13:06:40.847Z,78.20
2022-11-30T13:09:15.904Z,78.50
2022-11-30T13:11:48.598Z,78.50
2022-11-30T13:14:28.140Z,78.60
2022-11-30T13:17:04.600Z,78.30
2022-11-30T13:19:50.235Z,78.30
2022-11-30T13:22:25.101Z,77.60
2022-11-30T13:25:04.643Z,77.30
2022-11-30T13:27:43.575Z,77.30
2022-11-30T13:30:17.341Z,77.20
2022-11-30T13:32:59.772Z,77.30
2022-11-30T13:35:29.788Z,78.00
2022-11-30T13:40:58.257Z,78.30
2022-11-30T13:43:29.304Z,78.20
2022-11-30T13:46:03.813Z,77.50
2022-11-30T13:48:37.344Z,76.80
2022-11-30T13:51:04.628Z,77.40
2022-11-30T13:53:38.785Z,77.30
2022-11-30T13:56:17.722Z,76.80
2022-11-30T13:59:31.326Z,76.60
2022-11-30T14:02:44.637Z,76.60
2022-11-30T14:05:17.860Z,76.50
2022-11-30T14:07:50.947Z,76.50
2022-11-30T14:10:35.043Z,76.60
2022-11-30T14:13:09.606Z,77.00
2022-11-30T14:15:39.812Z,76.90
2022-11-30T14:18:09.778Z,77.10
2022-11-30T14:20:43.384Z,76.50
2022-11-30T14:23:27.636Z,76.40
2022-11-30T14:25:58.125Z,76.40
2022-11-30T14:28:51.929Z,76.60
2022-11-30T14:31:24.420Z,76.70
2022-11-30T14:34:17.475Z,76.40
2022-11-30T14:36:51.260Z,76.60
2022-11-30T14:39:46.102Z,76.90
2022-11-30T14:42:22.823Z,77.20
2022-11-30T14:44:50.951Z,77.40
2022-11-30T14:47:28.874Z,77.50
2022-11-30T14:49:57.545Z,77.40
2022-11-30T14:52:40.022Z,77.50
2022-11-30T14:55:15.427Z,77.60
2022-11-30T14:57:51.274Z,77.60
2022-11-30T15:00:20.476Z,77.70
2022-11-30T15:02:48.979Z,77.80
2022-11-30T15:05:27.332Z,78.00
2022-11-30T15:07:54.667Z,78.00
2022-11-30T15:10:30.354Z,78.20
2022-11-30T15:12:59.955Z,78.20
2022-11-30T15:15:28.183Z,78.20
2022-11-30T15:18:06.478Z,78.30
2022-11-30T15:20:59.724Z,78.20
2022-11-30T15:23:29.950Z,78.40
2022-11-30T15:26:15.592Z,78.40
2022-11-30T15:28:48.757Z,78.50
2022-11-30T15:31:19.549Z,78.70
2022-11-30T15:33:48.712Z,78.80
2022-11-30T15:36:31.990Z,79.00
2022-11-30T15:39:03.754Z,79.10
2022-11-30T15:41:33.653Z,79.20
2022-11-30T15:44:02.277Z,79.40
2022-11-30T15:46:57.235Z,79.50
2022-11-30T15:49:29.934Z,79.40
2022-11-30T15:52:05.205Z,79.20
2022-11-30T15:55:03.707Z,79.10
2022-11-30T15:58:02.876Z,79.10
2022-11-30T16:00:30.125Z,79.00
2022-11-30T16:03:11.775Z,78.80
2022-11-30T16:05:40.223Z,78.90
2022-11-30T16:08:18.683Z,78.90
2022-11-30T16:10:46.170Z,78.90
2022-11-30T16:13:39.558Z,78.70
2022-11-30T16:16:22.137Z,78.70
2022-11-30T16:18:50.150Z,78.80
2022-11-30T16:21:19.551Z,78.80
2022-11-30T16:23:48.262Z,78.90
2022-11-30T16:29:04.709Z,79.00
2022-11-30T16:31:32.264Z,79.20
2022-11-30T16:33:59.222Z,79.30
2022-11-30T16:36:26.424Z,79.40
2022-11-30T16:38:53.905Z,79.30
2022-11-30T16:41:23.139Z,79.20
2022-11-30T16:43:52.285Z,79.30
2022-11-30T16:46:23.957Z,79.40
2022-11-30T16:48:51.539Z,79.40
2022-11-30T16:51:26.888Z,79.50
2022-11-30T16:53:54.168Z,79.40
2022-11-30T16:56:21.310Z,79.50
2022-11-30T16:58:48.647Z,79.50
2022-11-30T17:01:34.544Z,79.50
2022-11-30T17:04:29.625Z,79.70
2022-11-30T17:07:02.479Z,79.70
2022-11-30T17:09:30.798Z,79.80
2022-11-30T17:11:58.042Z,79.80
2022-11-30T17:14:28.242Z,79.80
2022-11-30T17:16:59.949Z,79.70
2022-11-30T17:19:27.528Z,79.80
2022-11-30T17:21:54.533Z,79.80
2022-11-30T17:24:21.550Z,79.70
2022-11-30T17:26:48.604Z,79.80
2022-11-30T17:29:15.497Z,79.70
2022-11-30T17:31:42.529Z,79.80
2022-11-30T17:34:09.753Z,79.80
2022-11-30T17:36:36.800Z,79.90
2022-11-30T17:39:08.096Z,79.80
2022-11-30T17:41:35.067Z,79.70
2022-11-30T17:44:02.977Z,79.90
2022-11-30T17:46:30.115Z,79.80
2022-11-30T17:48:57.462Z,79.90
2022-11-30T17:51:24.525Z,79.80
2022-11-30T17:53:51.798Z,79.90
2022-11-30T17:56:18.772Z,79.90
2022-11-30T17:58:49.239Z,79.90
2022-11-30T18:01:23.147Z,79.90
2022-11-30T18:03:52.814Z,79.80
2022-11-30T18:06:20.493Z,79.80
2022-11-30T18:08:47.841Z,79.70
2022-11-30T18:11:17.288Z,79.80
2022-11-30T18:13:45.110Z,79.90
2022-11-30T18:16:17.635Z,80.20
2022-11-30T18:18:48.849Z,80.50
2022-11-30T18:21:19.326Z,80.50
2022-11-30T18:23:47.807Z,80.40
2022-11-30T18:26:18.156Z,80.30
2022-11-30T18:28:46.476Z,80.20
2022-11-30T18:31:14.062Z,80.20
2022-11-30T18:33:41.611Z,80.20
2022-11-30T18:36:12.843Z,80.00
2022-11-30T18:38:41.950Z,80.00
2022-11-30T18:41:09.071Z,80.10
2022-11-30T18:43:38.591Z,80.00
2022-11-30T18:46:13.991Z,80.00
2022-11-30T18:48:42.089Z,80.00
2022-11-30T18:51:26.758Z,80.00
2022-11-30T18:53:59.929Z,80.00
2022-11-30T18:56:30.513Z,80.00
2022-11-30T18:59:06.215Z,79.90
2022-11-30T19:01:35.561Z,79.80
2022-11-30T19:04:05.613Z,79.70
2022-11-30T19:06:33.957Z,79.80
2022-11-30T19:09:03.706Z,79.70
2022-11-30T19:11:38.729Z,79.60
2022-11-30T19:14:08.968Z,79.70
2022-11-30T19:16:39.183Z,79.70
2022-11-30T19:19:09.866Z,79.70
2022-11-30T19:21:37.095Z,79.90
2022-11-30T19:24:04.660Z,80.10
2022-11-30T19:26:40.603Z,80.20
2022-11-30T19:29:08.213Z,80.50
2022-11-30T19:31:36.054Z,80.70
2022-11-30T19:34:10.739Z,81.00
2022-11-30T19:36:40.577Z,81.00
2022-11-30T19:39:08.156Z,81.10
2022-11-30T19:41:39.542Z,81.00
2022-11-30T19:44:10.111Z,80.80
2022-11-30T19:46:40.339Z,80.70
2022-11-30T19:49:10.082Z,80.70
2022-11-30T19:51:40.875Z,80.70
2022-11-30T19:54:09.036Z,80.60
2022-11-30T19:56:39.025Z,80.40
2022-11-30T19:59:07.144Z,80.30
2022-11-30T20:01:36.172Z,80.30
2022-11-30T20:04:04.658Z,80.50
2022-11-30T20:06:37.547Z,80.30
2022-11-30T20:09:07.344Z,80.30
2022-11-30T20:11:39.101Z,80.30
2022-11-30T20:14:07.298Z,80.50
2022-11-30T20:16:35.604Z,80.40
2022-11-30T20:19:05.209Z,80.30
2022-11-30T20:21:35.260Z,80.40
2022-11-30T20:24:08.265Z,80.60
2022-11-30T20:26:44.618Z,80.70
2022-11-30T20:29:17.169Z,80.80
2022-11-30T20:31:46.769Z,80.70
2022-11-30T20:34:14.102Z,80.70
2022-11-30T20:36:41.948Z,80.70
2022-11-30T20:39:11.147Z,80.70
2022-11-30T20:41:38.960Z,80.80
2022-11-30T20:44:06.576Z,80.90
2022-11-30T20:46:37.575Z,80.80
2022-11-30T20:49:17.886Z,80.80
2022-11-30T20:51:49.234Z,80.70
2022-11-30T20:54:18.834Z,80.70
2022-11-30T20:56:50.697Z,80.70
2022-11-30T20:59:28.926Z,80.80
2022-11-30T21:01:57.279Z,80.70
2022-11-30T21:04:26.176Z,80.80
2022-11-30T21:06:54.788Z,80.60
2022-11-30T21:09:22.363Z,80.70
2022-11-30T21:11:53.272Z,80.70
2022-11-30T21:14:22.116Z,80.90
2022-11-30T21:16:52.324Z,81.20
2022-11-30T21:19:22.111Z,81.40
2022-11-30T21:21:50.704Z,81.60
2022-11-30T21:24:18.839Z,81.60
2022-11-30T21:26:46.052Z,81.50
2022-11-30T21:29:16.669Z,81.60
2022-11-30T21:31:47.527Z,81.60
2022-11-30T21:34:15.165Z,81.50
2022-11-30T21:36:44.866Z,81.50
2022-11-30T21:39:15.036Z,81.40
2022-11-30T21:41:42.849Z,81.50
2022-11-30T21:44:15.002Z,81.40
2022-11-30T21:46:45.951Z,81.10
2022-11-30T21:49:15.467Z,81.00
2022-11-30T21:51:43.164Z,80.90
2022-11-30T21:54:12.695Z,81.00
2022-11-30T21:56:42.831Z,81.00
2022-11-30T21:59:13.309Z,80.80
2022-11-30T22:01:43.102Z,80.80
2022-11-30T22:04:12.314Z,80.70
2022-11-30T22:06:40.867Z,80.60
2022-11-30T22:09:15.578Z,80.60
2022-11-30T22:11:52.318Z,80.70
2022-11-30T22:14:26.316Z,80.70
2022-11-30T22:16:53.446Z,80.60
2022-11-30T22:19:20.799Z,80.60
2022-11-30T22:21:50.423Z,80.70
2022-11-30T22:24:18.859Z,80.60
2022-11-30T22:26:47.176Z,80.50
2022-11-30T22:29:17.741Z,80.50
2022-11-30T22:31:46.687Z,80.50
2022-11-30T22:34:14.281Z,80.40
2022-11-30T22:36:43.295Z,80.40
2022-11-30T22:39:18.975Z,80.40
2022-11-30T22:41:53.096Z,80.50
2022-11-30T22:44:23.760Z,80.50
2022-11-30T22:46:51.769Z,80.40
2022-11-30T22:49:21.533Z,80.40
2022-11-30T22:51:50.177Z,80.30
2022-11-30T22:54:19.931Z,80.30
2022-11-30T22:57:00.496Z,80.30
2022-11-30T22:59:30.860Z,80.10
2022-11-30T23:01:58.154Z,80.00
2022-11-30T23:04:25.492Z,79.90
2022-11-30T23:06:52.650Z,80.00
2022-11-30T23:09:22.213Z,80.10
2022-11-30T23:11:50.640Z,80.00
